createdAt,value
2019-03-19T00:02:25.525Z,1.30
2019-03-19T00:04:51.523Z,1.30
2019-03-19T00:07:18.243Z,1.33
2019-03-19T00:09:44.234Z,1.50
2019-03-19T00:12:10.198Z,1.50
2019-03-19T00:14:36.205Z,1.30
2019-03-19T00:17:02.176Z,1.60
2019-03-19T00:19:28.160Z,1.53
2019-03-19T00:21:54.109Z,1.10
2019-03-19T00:24:20.098Z,1.47
2019-03-19T00:26:46.066Z,1.90
2019-03-19T00:29:12.101Z,1.07
2019-03-19T00:31:38.089Z,1.43
2019-03-19T00:34:04.075Z,1.63
2019-03-19T00:36:30.045Z,1.60
2019-03-19T00:38:56.799Z,1.50
2019-03-19T00:41:22.764Z,1.20
2019-03-19T00:43:48.777Z,0.73
2019-03-19T00:46:14.733Z,1.43
2019-03-19T00:48:40.746Z,1.10
2019-03-19T00:51:06.715Z,1.53
2019-03-19T00:53:32.702Z,1.47
2019-03-19T00:55:59.438Z,1.40
2019-03-19T00:58:25.425Z,1.10
2019-03-19T01:00:51.422Z,1.23
2019-03-19T01:03:18.175Z,1.00
2019-03-19T01:05:44.906Z,1.33
2019-03-19T01:08:10.897Z,1.37
2019-03-19T01:10:36.893Z,1.70
2019-03-19T01:13:02.876Z,1.50
2019-03-19T01:15:29.616Z,1.40
2019-03-19T01:17:55.593Z,0.80
2019-03-19T01:20:21.598Z,1.30
2019-03-19T01:22:47.571Z,1.30
2019-03-19T01:25:14.299Z,1.20
2019-03-19T01:27:41.030Z,0.97
2019-03-19T01:30:07.017Z,1.30
2019-03-19T01:32:33.004Z,0.93
2019-03-19T01:34:59.732Z,1.03
2019-03-19T01:37:25.707Z,1.00
2019-03-19T01:39:51.678Z,0.80
2019-03-19T01:42:17.624Z,1.50
2019-03-19T01:44:43.620Z,0.90
2019-03-19T01:47:09.573Z,1.73
2019-03-19T01:49:35.579Z,1.53
2019-03-19T01:52:02.287Z,1.93
2019-03-19T01:54:28.283Z,1.50
2019-03-19T01:56:54.252Z,1.60
2019-03-19T01:59:20.242Z,1.83
2019-03-19T02:01:46.201Z,1.70
2019-03-19T02:04:12.213Z,1.40
2019-03-19T02:06:38.174Z,1.50
2019-03-19T02:09:04.158Z,0.93
2019-03-19T02:11:30.162Z,2.10
2019-03-19T02:13:56.106Z,1.03
2019-03-19T02:16:22.075Z,1.07
2019-03-19T02:18:48.032Z,1.63
2019-03-19T02:21:14.002Z,1.00
2019-03-19T02:23:39.952Z,1.60
2019-03-19T02:26:16.028Z,1.07
2019-03-19T02:28:31.944Z,1.03
2019-03-19T02:30:58.662Z,1.17
2019-03-19T02:33:24.634Z,1.20
2019-03-19T02:35:50.633Z,1.17
2019-03-19T02:38:16.582Z,0.83
2019-03-19T02:40:42.566Z,0.87
2019-03-19T02:43:08.521Z,1.13
2019-03-19T02:45:35.260Z,0.70
2019-03-19T02:48:01.248Z,0.80
2019-03-19T02:50:27.251Z,1.00
2019-03-19T02:52:53.237Z,1.00
2019-03-19T02:55:19.250Z,2.30
2019-03-19T02:57:45.976Z,1.10
2019-03-19T03:00:11.967Z,1.47
2019-03-19T03:02:37.946Z,1.43
2019-03-19T03:05:03.955Z,0.93
2019-03-19T03:07:29.911Z,1.13
2019-03-19T03:09:55.951Z,0.83
2019-03-19T03:12:21.983Z,1.47
2019-03-19T03:14:47.973Z,0.93
2019-03-19T03:17:13.978Z,0.67
2019-03-19T03:19:39.930Z,0.97
2019-03-19T03:22:05.931Z,1.07
2019-03-19T03:24:31.921Z,0.87
2019-03-19T03:26:57.887Z,0.73
2019-03-19T03:29:23.853Z,1.47
2019-03-19T03:31:49.883Z,1.10
2019-03-19T03:34:16.609Z,1.37
2019-03-19T03:36:42.601Z,0.90
2019-03-19T03:39:08.570Z,1.47
2019-03-19T03:41:34.562Z,1.53
2019-03-19T03:44:00.558Z,1.10
2019-03-19T03:46:26.565Z,1.43
2019-03-19T03:48:53.279Z,1.10
2019-03-19T03:51:19.272Z,1.27
2019-03-19T03:53:45.252Z,1.23
2019-03-19T03:56:11.294Z,1.03
2019-03-19T03:58:37.253Z,1.67
2019-03-19T04:01:03.276Z,1.40
2019-03-19T04:03:29.270Z,1.13
2019-03-19T04:05:55.287Z,2.00
2019-03-19T04:08:21.271Z,1.47
2019-03-19T04:10:48.020Z,1.27
2019-03-19T04:13:13.988Z,1.43
2019-03-19T04:15:39.955Z,1.10
2019-03-19T04:18:05.921Z,1.30
2019-03-19T04:20:31.906Z,1.60
2019-03-19T04:22:57.888Z,0.90
2019-03-19T04:25:23.870Z,0.83
2019-03-19T04:27:49.912Z,1.50
2019-03-19T04:30:15.875Z,1.17
2019-03-19T04:32:41.860Z,0.80
2019-03-19T04:35:07.816Z,1.37
2019-03-19T04:37:33.814Z,1.13
2019-03-19T04:39:59.770Z,1.87
2019-03-19T04:42:25.768Z,1.27
2019-03-19T04:44:51.728Z,1.20
2019-03-19T04:47:17.695Z,0.83
2019-03-19T04:49:43.647Z,1.30
2019-03-19T04:52:09.667Z,1.10
2019-03-19T04:54:35.634Z,0.90
2019-03-19T04:57:02.380Z,1.50
2019-03-19T04:59:29.076Z,1.53
2019-03-19T05:01:55.067Z,1.07
2019-03-19T05:04:21.042Z,1.00
2019-03-19T05:06:47.023Z,1.33
2019-03-19T05:09:13.002Z,1.57
2019-03-19T05:11:38.979Z,1.57
2019-03-19T05:14:04.939Z,1.10
2019-03-19T05:16:30.940Z,1.00
2019-03-19T05:18:56.928Z,0.90
2019-03-19T05:21:22.892Z,0.83
2019-03-19T05:23:48.901Z,1.03
2019-03-19T05:26:14.873Z,0.90
2019-03-19T05:28:40.885Z,1.40
2019-03-19T05:31:07.602Z,1.37
2019-03-19T05:33:33.754Z,1.10
2019-03-19T05:36:00.463Z,0.73
2019-03-19T05:38:26.478Z,0.90
2019-03-19T05:40:52.440Z,1.40
2019-03-19T05:43:19.163Z,0.83
2019-03-19T05:45:45.141Z,1.00
2019-03-19T05:48:11.114Z,1.00
2019-03-19T05:50:37.118Z,1.00
2019-03-19T05:53:03.191Z,1.70
2019-03-19T05:55:29.198Z,1.10
2019-03-19T05:57:55.919Z,1.53
2019-03-19T06:00:21.872Z,1.30
2019-03-19T06:02:48.322Z,1.40
2019-03-19T06:05:14.431Z,1.30
2019-03-19T06:07:41.165Z,1.50
2019-03-19T06:10:07.889Z,1.63
2019-03-19T06:12:33.888Z,1.83
2019-03-19T06:14:59.849Z,1.50
2019-03-19T06:17:26.561Z,0.87
2019-03-19T06:19:52.544Z,1.30
2019-03-19T06:22:18.525Z,1.57
2019-03-19T06:24:44.464Z,1.40
2019-03-19T06:27:10.427Z,1.27
2019-03-19T06:29:36.405Z,1.17
2019-03-19T06:32:03.098Z,1.53
2019-03-19T06:34:29.073Z,1.23
2019-03-19T06:36:55.028Z,1.70
2019-03-19T06:39:21.020Z,1.27
2019-03-19T06:41:47.719Z,0.90
2019-03-19T06:44:13.717Z,1.00
2019-03-19T06:46:39.688Z,1.00
2019-03-19T06:49:06.420Z,1.13
2019-03-19T06:51:32.366Z,1.10
2019-03-19T06:53:58.395Z,1.40
2019-03-19T06:56:25.080Z,1.60
2019-03-19T06:58:51.058Z,1.27
2019-03-19T07:01:17.512Z,1.67
2019-03-19T07:03:43.074Z,1.00
2019-03-19T07:06:09.070Z,1.40
2019-03-19T07:08:35.084Z,1.50
2019-03-19T07:11:01.057Z,1.50
2019-03-19T07:13:27.808Z,1.60
2019-03-19T07:15:54.519Z,1.20
2019-03-19T07:18:20.489Z,1.20
2019-03-19T07:20:46.469Z,0.80
2019-03-19T07:23:12.465Z,1.67
2019-03-19T07:25:38.417Z,1.37
2019-03-19T07:28:04.412Z,1.47
2019-03-19T07:30:30.374Z,1.50
2019-03-19T07:32:57.085Z,1.47
2019-03-19T07:35:23.063Z,1.27
2019-03-19T07:37:49.016Z,1.10
2019-03-19T07:40:15.010Z,1.23
2019-03-19T07:42:40.966Z,1.57
2019-03-19T07:45:06.979Z,1.57
2019-03-19T07:47:32.947Z,1.13
2019-03-19T07:49:59.681Z,1.20
2019-03-19T07:52:25.650Z,1.40
2019-03-19T07:54:51.624Z,1.43
2019-03-19T07:57:17.632Z,1.10
2019-03-19T07:59:43.611Z,1.10
2019-03-19T08:02:09.577Z,1.20
2019-03-19T08:04:35.550Z,1.10
2019-03-19T08:07:01.499Z,0.87
2019-03-19T08:09:27.580Z,1.10
2019-03-19T08:11:53.524Z,1.00
2019-03-19T08:14:19.537Z,1.10
2019-03-19T08:16:45.504Z,0.80
2019-03-19T08:19:11.474Z,1.30
2019-03-19T08:21:37.443Z,0.90
2019-03-19T08:24:03.415Z,0.90
2019-03-19T08:26:30.136Z,1.27
2019-03-19T08:28:56.888Z,1.23
2019-03-19T08:31:23.590Z,1.00
2019-03-19T08:33:49.576Z,1.13
2019-03-19T08:36:15.565Z,1.10
2019-03-19T08:38:42.295Z,1.07
2019-03-19T08:41:08.295Z,0.97
2019-03-19T08:43:34.253Z,1.10
2019-03-19T08:46:00.237Z,0.90
2019-03-19T08:48:26.191Z,1.03
2019-03-19T08:50:52.188Z,0.90
2019-03-19T08:53:18.163Z,1.00
2019-03-19T08:55:44.876Z,0.90
2019-03-19T08:58:10.843Z,1.00
2019-03-19T09:00:36.830Z,1.30
2019-03-19T09:03:03.558Z,1.07
2019-03-19T09:05:29.531Z,0.70
2019-03-19T09:07:55.484Z,1.07
2019-03-19T09:10:21.456Z,0.93
2019-03-19T09:12:48.912Z,1.00
2019-03-19T09:15:14.225Z,1.60
2019-03-19T09:17:40.208Z,1.23
2019-03-19T09:20:06.205Z,1.10
2019-03-19T09:22:32.159Z,1.00
2019-03-19T09:24:58.168Z,0.80
2019-03-19T09:27:24.118Z,0.97
2019-03-19T09:29:50.105Z,0.90
2019-03-19T09:32:16.084Z,0.70
2019-03-19T09:34:42.058Z,0.87
2019-03-19T09:37:08.058Z,0.97
2019-03-19T09:39:34.033Z,1.33
2019-03-19T09:42:00.727Z,1.10
2019-03-19T09:44:26.694Z,1.13
2019-03-19T09:46:52.674Z,0.53
2019-03-19T09:49:18.643Z,1.10
2019-03-19T09:51:44.615Z,0.90
2019-03-19T09:54:10.586Z,0.90
2019-03-19T09:56:37.315Z,0.90
2019-03-19T09:59:03.269Z,0.97
2019-03-19T10:01:29.254Z,1.03
2019-03-19T10:03:55.218Z,0.90
2019-03-19T10:06:21.220Z,0.90
2019-03-19T10:08:47.908Z,1.03
2019-03-19T10:11:13.898Z,0.67
2019-03-19T10:13:40.583Z,0.97
2019-03-19T10:16:07.713Z,0.80
2019-03-19T10:18:32.553Z,0.60
2019-03-19T10:20:58.544Z,0.90
2019-03-19T10:23:24.520Z,1.00
2019-03-19T10:25:51.243Z,0.90
2019-03-19T10:28:17.192Z,0.83
2019-03-19T10:30:43.192Z,0.87
2019-03-19T10:33:09.901Z,0.83
2019-03-19T10:35:35.906Z,1.13
2019-03-19T10:38:01.858Z,1.00
2019-03-19T10:40:27.836Z,0.70
2019-03-19T10:42:53.788Z,0.93
2019-03-19T10:45:19.784Z,0.60
2019-03-19T10:47:45.737Z,0.60
2019-03-19T10:50:11.693Z,1.17
2019-03-19T10:52:38.424Z,0.50
2019-03-19T10:55:04.382Z,0.80
2019-03-19T10:57:30.361Z,0.90
2019-03-19T10:59:56.315Z,0.70
2019-03-19T11:02:23.034Z,0.80
2019-03-19T11:04:49.741Z,0.93
2019-03-19T11:07:15.738Z,0.60
2019-03-19T11:09:41.691Z,0.70
2019-03-19T11:12:07.672Z,0.73
2019-03-19T11:14:33.661Z,0.70
2019-03-19T11:16:59.664Z,0.73
2019-03-19T11:19:25.620Z,0.60
2019-03-19T11:21:51.628Z,0.80
2019-03-19T11:24:17.593Z,0.40
2019-03-19T11:26:43.575Z,0.50
2019-03-19T11:29:09.527Z,0.67
2019-03-19T11:31:36.294Z,0.80
2019-03-19T11:34:02.264Z,0.60
2019-03-19T11:36:28.243Z,0.50
2019-03-19T11:38:54.244Z,0.70
2019-03-19T11:41:20.227Z,0.70
2019-03-19T11:43:46.168Z,0.70
2019-03-19T11:46:12.901Z,0.80
2019-03-19T11:48:38.866Z,0.70
2019-03-19T11:51:04.855Z,0.63
2019-03-19T11:53:31.539Z,0.50
2019-03-19T11:55:57.510Z,0.40
2019-03-19T11:58:24.246Z,0.57
2019-03-19T12:00:50.950Z,0.60
2019-03-19T12:03:17.722Z,0.80
2019-03-19T12:05:43.662Z,0.47
2019-03-19T12:08:09.687Z,0.80
2019-03-19T12:10:36.369Z,0.30
2019-03-19T12:13:02.361Z,0.43
2019-03-19T12:15:28.330Z,0.80
2019-03-19T12:17:54.329Z,0.70
2019-03-19T12:20:20.912Z,0.60
2019-03-19T12:22:46.351Z,0.40
2019-03-19T12:25:13.057Z,1.47
2019-03-19T12:27:39.061Z,0.90
2019-03-19T12:30:05.017Z,0.77
2019-03-19T12:32:31.741Z,0.97
2019-03-19T12:34:57.715Z,0.60
2019-03-19T12:37:23.706Z,0.57
2019-03-19T12:39:49.680Z,0.77
2019-03-19T12:42:15.649Z,0.87
2019-03-19T12:44:42.340Z,0.70
2019-03-19T12:47:08.329Z,0.60
2019-03-19T12:49:35.029Z,1.07
2019-03-19T12:52:01.016Z,0.80
2019-03-19T12:54:26.985Z,0.70
2019-03-19T12:56:52.998Z,1.10
2019-03-19T12:59:20.581Z,0.90
2019-03-19T13:01:44.931Z,0.80
2019-03-19T13:04:10.920Z,1.07
2019-03-19T13:06:36.908Z,0.67
2019-03-19T13:09:03.666Z,0.60
2019-03-19T13:11:30.372Z,1.00
2019-03-19T13:13:56.373Z,0.87
2019-03-19T13:16:22.358Z,0.90
2019-03-19T13:18:48.339Z,1.00
2019-03-19T13:21:14.305Z,1.00
2019-03-19T13:23:40.286Z,0.77
2019-03-19T13:26:06.239Z,0.60
2019-03-19T13:28:33.002Z,0.80
2019-03-19T13:30:58.272Z,0.90
2019-03-19T13:33:24.250Z,0.73
2019-03-19T13:35:50.214Z,0.60
2019-03-19T13:38:16.952Z,1.03
2019-03-19T13:40:42.912Z,1.20
2019-03-19T13:43:08.907Z,0.90
2019-03-19T13:45:35.599Z,0.87
2019-03-19T13:48:01.585Z,0.93
2019-03-19T13:50:28.313Z,0.60
2019-03-19T13:52:55.035Z,0.70
2019-03-19T13:55:21.014Z,0.73
2019-03-19T13:57:47.000Z,0.60
2019-03-19T14:00:13.711Z,0.80
2019-03-19T14:02:39.701Z,0.57
2019-03-19T14:05:06.417Z,0.90
2019-03-19T14:07:32.393Z,0.90
2019-03-19T14:09:58.375Z,0.50
2019-03-19T14:12:24.353Z,0.60
2019-03-19T14:14:50.338Z,0.70
2019-03-19T14:17:16.298Z,0.67
2019-03-19T14:19:42.279Z,0.87
2019-03-19T14:22:08.261Z,0.77
2019-03-19T14:24:34.993Z,0.97
2019-03-19T14:27:00.951Z,0.97
2019-03-19T14:29:26.936Z,0.93
2019-03-19T14:31:52.881Z,0.80
2019-03-19T14:34:19.598Z,0.80
2019-03-19T14:36:46.322Z,0.77
2019-03-19T14:39:12.323Z,0.80
2019-03-19T14:41:38.317Z,0.83
2019-03-19T14:44:04.301Z,0.90
2019-03-19T14:46:30.271Z,0.80
2019-03-19T14:48:56.249Z,0.90
2019-03-19T14:51:22.205Z,1.00
2019-03-19T14:53:48.918Z,1.00
2019-03-19T14:56:14.907Z,0.80
2019-03-19T14:58:40.898Z,0.70
2019-03-19T15:01:06.874Z,0.63
2019-03-19T15:03:32.890Z,0.80
2019-03-19T15:05:58.836Z,1.60
2019-03-19T15:08:25.684Z,1.20
2019-03-19T15:10:51.604Z,0.83
2019-03-19T15:13:18.305Z,0.70
2019-03-19T15:15:44.321Z,0.70
2019-03-19T15:18:10.254Z,0.77
2019-03-19T15:20:36.245Z,0.63
2019-03-19T15:23:02.219Z,0.87
2019-03-19T15:25:28.193Z,0.77
2019-03-19T15:27:54.146Z,0.80
2019-03-19T15:30:20.138Z,0.70
2019-03-19T15:32:46.097Z,0.90
2019-03-19T15:35:12.118Z,0.73
2019-03-19T15:37:38.090Z,0.87
2019-03-19T15:40:04.068Z,0.80
2019-03-19T15:42:30.016Z,0.90
2019-03-19T15:44:56.782Z,1.00
2019-03-19T15:47:22.771Z,0.87
2019-03-19T15:49:49.491Z,0.77
2019-03-19T15:52:15.459Z,0.67
2019-03-19T15:54:41.439Z,0.90
2019-03-19T15:57:07.409Z,0.80
2019-03-19T15:59:33.409Z,0.70
2019-03-19T16:02:00.101Z,1.20
2019-03-19T16:04:26.092Z,0.70
2019-03-19T16:06:52.060Z,0.80
2019-03-19T16:09:18.029Z,0.83
2019-03-19T16:11:43.992Z,0.60
2019-03-19T16:14:09.998Z,0.63
2019-03-19T16:16:35.957Z,1.07
2019-03-19T16:19:08.818Z,0.70
2019-03-19T16:21:34.897Z,0.90
2019-03-19T16:24:01.605Z,0.73
2019-03-19T16:26:27.589Z,0.97
2019-03-19T16:28:53.550Z,0.73
2019-03-19T16:31:19.688Z,0.70
2019-03-19T16:33:46.565Z,0.73
2019-03-19T16:36:12.565Z,0.70
2019-03-19T16:38:38.523Z,0.80
2019-03-19T16:41:04.508Z,0.90
2019-03-19T16:43:30.496Z,0.73
2019-03-19T16:45:56.485Z,0.63
2019-03-19T16:48:22.455Z,0.80
2019-03-19T16:50:49.106Z,0.70
2019-03-19T16:53:15.826Z,0.87
2019-03-19T16:55:41.815Z,0.77
2019-03-19T16:58:07.800Z,0.57
2019-03-19T17:00:33.788Z,0.67
2019-03-19T17:02:59.748Z,1.00
2019-03-19T17:05:25.726Z,1.13
2019-03-19T17:07:51.686Z,1.00
2019-03-19T17:10:17.683Z,1.10
2019-03-19T17:12:43.640Z,0.80
2019-03-19T17:15:09.645Z,1.20
2019-03-19T17:17:35.608Z,1.17
2019-03-19T17:20:02.336Z,0.70
2019-03-19T17:22:29.048Z,0.93
2019-03-19T17:24:54.990Z,1.20
2019-03-19T17:27:21.728Z,0.90
2019-03-19T17:29:48.444Z,0.70
2019-03-19T17:32:14.456Z,0.70
2019-03-19T17:34:40.417Z,0.90
2019-03-19T17:37:07.153Z,0.50
2019-03-19T17:39:33.124Z,0.90
2019-03-19T17:41:59.135Z,0.73
2019-03-19T17:44:25.153Z,0.80
2019-03-19T17:46:51.145Z,0.63
2019-03-19T17:49:17.088Z,0.80
2019-03-19T17:51:43.828Z,0.70
2019-03-19T17:54:10.539Z,1.00
2019-03-19T17:56:36.546Z,0.60
2019-03-19T17:59:02.668Z,1.20
2019-03-19T18:01:28.747Z,0.90
2019-03-19T18:03:55.443Z,1.20
2019-03-19T18:06:21.424Z,1.17
2019-03-19T18:08:47.386Z,1.13
2019-03-19T18:11:13.386Z,1.40
2019-03-19T18:13:39.355Z,1.40
2019-03-19T18:16:06.107Z,1.30
2019-03-19T18:18:32.086Z,1.53
2019-03-19T18:20:58.073Z,2.10
2019-03-19T18:23:24.069Z,1.63
2019-03-19T18:25:50.058Z,1.37
2019-03-19T18:28:16.074Z,1.43
2019-03-19T18:30:42.054Z,1.40
2019-03-19T18:33:08.772Z,1.27
2019-03-19T18:35:34.778Z,1.37
2019-03-19T18:38:00.863Z,1.50
2019-03-19T18:40:26.838Z,1.40
2019-03-19T18:42:52.816Z,1.87
2019-03-19T18:45:18.808Z,1.77
2019-03-19T18:47:45.533Z,1.93
2019-03-19T18:50:12.247Z,1.90
2019-03-19T18:52:38.244Z,1.70
2019-03-19T18:55:04.225Z,1.80
2019-03-19T18:57:30.977Z,1.47
2019-03-19T18:59:57.754Z,1.63
2019-03-19T19:02:23.746Z,1.63
2019-03-19T19:04:49.739Z,1.63
2019-03-19T19:07:16.537Z,1.63
2019-03-19T19:09:42.496Z,1.50
2019-03-19T19:12:08.528Z,1.97
2019-03-19T19:14:34.495Z,2.20
2019-03-19T19:17:00.500Z,1.60
2019-03-19T19:19:26.490Z,2.03
2019-03-19T19:21:52.519Z,1.97
2019-03-19T19:24:18.495Z,1.83
2019-03-19T19:26:44.531Z,1.67
2019-03-19T19:29:10.536Z,1.63
2019-03-19T19:31:36.535Z,1.73
2019-03-19T19:34:03.232Z,1.73
2019-03-19T19:36:29.205Z,1.67
2019-03-19T19:38:55.216Z,2.17
2019-03-19T19:41:21.927Z,2.13
2019-03-19T19:43:47.934Z,2.20
2019-03-19T19:46:13.917Z,1.90
2019-03-19T19:48:39.901Z,2.37
2019-03-19T19:51:05.873Z,1.60
2019-03-19T19:53:31.881Z,1.97
2019-03-19T19:55:58.594Z,1.83
2019-03-19T19:58:24.580Z,2.00
2019-03-19T20:00:50.564Z,2.10
2019-03-19T20:03:17.312Z,1.90
2019-03-19T20:05:43.289Z,1.90
2019-03-19T20:08:09.317Z,1.90
2019-03-19T20:10:35.334Z,2.00
2019-03-19T20:13:02.110Z,2.03
2019-03-19T20:15:28.858Z,2.10
2019-03-19T20:17:54.888Z,1.73
2019-03-19T20:20:20.858Z,2.10
2019-03-19T20:22:46.861Z,2.03
2019-03-19T20:25:12.883Z,2.30
2019-03-19T20:27:38.896Z,2.07
2019-03-19T20:30:04.849Z,2.30
2019-03-19T20:32:30.853Z,1.47
2019-03-19T20:34:56.826Z,1.83
2019-03-19T20:37:23.602Z,1.67
2019-03-19T20:39:49.563Z,1.73
2019-03-19T20:42:15.538Z,1.70
2019-03-19T20:44:41.568Z,2.10
2019-03-19T20:47:07.543Z,1.90
2019-03-19T20:49:33.543Z,1.60
2019-03-19T20:51:59.532Z,2.17
2019-03-19T20:54:25.544Z,1.80
2019-03-19T20:56:52.266Z,2.17
2019-03-19T20:59:19.032Z,2.03
2019-03-19T21:01:45.005Z,2.23
2019-03-19T21:04:11.021Z,1.83
2019-03-19T21:06:36.999Z,2.47
2019-03-19T21:09:03.001Z,1.63
2019-03-19T21:11:29.727Z,2.30
2019-03-19T21:13:55.725Z,2.10
2019-03-19T21:16:21.700Z,1.83
2019-03-19T21:18:48.414Z,2.37
2019-03-19T21:21:14.384Z,2.33
2019-03-19T21:23:40.381Z,2.50
2019-03-19T21:26:07.107Z,2.10
2019-03-19T21:28:33.836Z,2.43
2019-03-19T21:30:59.819Z,2.47
2019-03-19T21:33:25.819Z,2.40
2019-03-19T21:35:51.813Z,2.27
2019-03-19T21:38:17.821Z,2.33
2019-03-19T21:40:43.815Z,2.40
2019-03-19T21:43:09.841Z,2.50
2019-03-19T21:45:35.903Z,2.57
2019-03-19T21:48:01.982Z,2.37
2019-03-19T21:50:27.968Z,3.00
2019-03-19T21:52:54.682Z,3.30
2019-03-19T21:55:20.676Z,2.30
2019-03-19T21:57:46.693Z,2.30
2019-03-19T22:00:12.699Z,2.97
2019-03-19T22:02:38.677Z,2.70
2019-03-19T22:05:04.664Z,3.30
2019-03-19T22:07:30.622Z,3.33
2019-03-19T22:09:56.659Z,2.67
2019-03-19T22:12:22.636Z,3.40
2019-03-19T22:14:48.689Z,2.83
2019-03-19T22:17:14.671Z,2.97
2019-03-19T22:19:40.689Z,2.43
2019-03-19T22:22:06.662Z,2.50
2019-03-19T22:24:32.639Z,3.13
2019-03-19T22:26:58.599Z,3.33
2019-03-19T22:29:24.587Z,2.80
2019-03-19T22:31:50.551Z,3.60
2019-03-19T22:34:16.573Z,3.00
2019-03-19T22:36:42.550Z,3.10
2019-03-19T22:39:08.546Z,3.03
2019-03-19T22:41:35.262Z,2.87
2019-03-19T22:44:01.240Z,2.80
2019-03-19T22:46:27.215Z,3.03
2019-03-19T22:48:53.222Z,3.37
2019-03-19T22:51:19.194Z,3.00
2019-03-19T22:53:45.902Z,3.33
2019-03-19T22:56:11.884Z,3.67
2019-03-19T22:58:37.874Z,3.67
2019-03-19T23:01:04.641Z,3.77
2019-03-19T23:03:30.631Z,3.50
2019-03-19T23:05:56.648Z,3.20
2019-03-19T23:08:23.369Z,3.97
2019-03-19T23:10:49.358Z,2.93
2019-03-19T23:13:15.323Z,4.00
2019-03-19T23:15:41.312Z,3.13
2019-03-19T23:18:07.272Z,3.33
2019-03-19T23:20:33.271Z,3.83
2019-03-19T23:22:59.247Z,4.23
2019-03-19T23:25:25.225Z,4.10
2019-03-19T23:27:51.177Z,4.10
2019-03-19T23:30:17.893Z,4.53
2019-03-19T23:32:43.866Z,4.13
2019-03-19T23:35:09.864Z,4.43
2019-03-19T23:37:36.561Z,4.23
2019-03-19T23:40:02.579Z,4.80
2019-03-19T23:42:28.550Z,5.23
2019-03-19T23:44:55.296Z,4.87
2019-03-19T23:47:22.020Z,4.83
2019-03-19T23:49:48.027Z,4.50
2019-03-19T23:52:14.004Z,4.40
2019-03-19T23:54:40.002Z,4.50
2019-03-19T23:57:06.755Z,5.33
2019-03-19T23:59:32.737Z,4.67
